sensor_id;sensor_type;location;lat;lon;timestamp;P1;durP1;ratioP1;P2;durP2;ratioP2
51764;SDS011;37835;53.256;6.456;2023-05-16T00:02:18;22.85;;;2.63;;
51764;SDS011;37835;53.256;6.456;2023-05-16T00:04:44;16.27;;;2.15;;
51764;SDS011;37835;53.256;6.456;2023-05-16T00:07:10;24.90;;;2.85;;
51764;SDS011;37835;53.256;6.456;2023-05-16T00:09:36;24.25;;;2.97;;
51764;SDS011;37835;53.256;6.456;2023-05-16T00:12:02;22.00;;;3.00;;
51764;SDS011;37835;53.256;6.456;2023-05-16T00:14:28;21.15;;;2.28;;
51764;SDS011;37835;53.256;6.456;2023-05-16T00:16:54;18.08;;;2.28;;
51764;SDS011;37835;53.256;6.456;2023-05-16T00:19:22;19.25;;;2.65;;
51764;SDS011;37835;53.256;6.456;2023-05-16T00:21:48;18.35;;;2.47;;
51764;SDS011;37835;53.256;6.456;2023-05-16T00:24:13;10.55;;;1.88;;
51764;SDS011;37835;53.256;6.456;2023-05-16T00:26:39;19.08;;;2.65;;
51764;SDS011;37835;53.256;6.456;2023-05-16T00:29:05;14.63;;;2.25;;
51764;SDS011;37835;53.256;6.456;2023-05-16T00:31:31;16.95;;;2.65;;
51764;SDS011;37835;53.256;6.456;2023-05-16T00:33:56;19.27;;;2.78;;
51764;SDS011;37835;53.256;6.456;2023-05-16T00:36:22;18.52;;;2.95;;
51764;SDS011;37835;53.256;6.456;2023-05-16T00:38:48;21.50;;;2.13;;
51764;SDS011;37835;53.256;6.456;2023-05-16T00:41:13;12.75;;;1.55;;
51764;SDS011;37835;53.256;6.456;2023-05-16T00:43:40;15.15;;;2.30;;
51764;SDS011;37835;53.256;6.456;2023-05-16T00:46:06;18.70;;;1.98;;
51764;SDS011;37835;53.256;6.456;2023-05-16T00:48:31;17.48;;;2.58;;
51764;SDS011;37835;53.256;6.456;2023-05-16T00:50:57;19.10;;;2.30;;
51764;SDS011;37835;53.256;6.456;2023-05-16T00:53:23;15.82;;;2.60;;
51764;SDS011;37835;53.256;6.456;2023-05-16T00:55:50;14.13;;;2.20;;
51764;SDS011;37835;53.256;6.456;2023-05-16T00:58:15;16.55;;;2.15;;
51764;SDS011;37835;53.256;6.456;2023-05-16T01:00:43;18.02;;;2.30;;
51764;SDS011;37835;53.256;6.456;2023-05-16T01:03:09;11.88;;;1.88;;
51764;SDS011;37835;53.256;6.456;2023-05-16T01:05:36;20.88;;;2.67;;
51764;SDS011;37835;53.256;6.456;2023-05-16T01:08:01;11.30;;;1.52;;
51764;SDS011;37835;53.256;6.456;2023-05-16T01:10:29;12.32;;;1.85;;
51764;SDS011;37835;53.256;6.456;2023-05-16T01:16:21;24.13;;;2.47;;
51764;SDS011;37835;53.256;6.456;2023-05-16T01:19:20;17.27;;;2.08;;
51764;SDS011;37835;53.256;6.456;2023-05-16T01:22:00;10.90;;;1.40;;
51764;SDS011;37835;53.256;6.456;2023-05-16T01:24:33;18.77;;;2.33;;
51764;SDS011;37835;53.256;6.456;2023-05-16T01:27:04;13.95;;;2.05;;
51764;SDS011;37835;53.256;6.456;2023-05-16T01:29:30;16.08;;;2.17;;
51764;SDS011;37835;53.256;6.456;2023-05-16T01:31:56;14.40;;;2.40;;
51764;SDS011;37835;53.256;6.456;2023-05-16T01:34:22;16.35;;;2.65;;
51764;SDS011;37835;53.256;6.456;2023-05-16T01:39:41;18.42;;;2.08;;
51764;SDS011;37835;53.256;6.456;2023-05-16T01:42:14;16.70;;;2.50;;
51764;SDS011;37835;53.256;6.456;2023-05-16T01:44:55;18.92;;;2.50;;
51764;SDS011;37835;53.256;6.456;2023-05-16T01:47:26;15.90;;;2.30;;
51764;SDS011;37835;53.256;6.456;2023-05-16T01:52:26;16.77;;;2.55;;
51764;SDS011;37835;53.256;6.456;2023-05-16T01:54:57;23.20;;;2.40;;
51764;SDS011;37835;53.256;6.456;2023-05-16T01:57:25;23.48;;;2.55;;
51764;SDS011;37835;53.256;6.456;2023-05-16T01:59:52;19.63;;;2.45;;
51764;SDS011;37835;53.256;6.456;2023-05-16T02:02:18;18.70;;;2.28;;
51764;SDS011;37835;53.256;6.456;2023-05-16T02:04:44;17.95;;;2.72;;
51764;SDS011;37835;53.256;6.456;2023-05-16T02:07:10;22.05;;;2.85;;
51764;SDS011;37835;53.256;6.456;2023-05-16T02:09:38;16.17;;;2.58;;
51764;SDS011;37835;53.256;6.456;2023-05-16T02:12:04;24.85;;;2.28;;
51764;SDS011;37835;53.256;6.456;2023-05-16T02:14:30;17.60;;;2.58;;
51764;SDS011;37835;53.256;6.456;2023-05-16T02:16:55;16.17;;;2.70;;
51764;SDS011;37835;53.256;6.456;2023-05-16T02:19:21;19.30;;;3.33;;
51764;SDS011;37835;53.256;6.456;2023-05-16T02:21:46;20.58;;;2.78;;
51764;SDS011;37835;53.256;6.456;2023-05-16T02:24:12;23.13;;;2.15;;
51764;SDS011;37835;53.256;6.456;2023-05-16T02:26:38;20.50;;;3.25;;
51764;SDS011;37835;53.256;6.456;2023-05-16T02:29:03;22.23;;;3.40;;
51764;SDS011;37835;53.256;6.456;2023-05-16T02:31:30;14.73;;;2.72;;
51764;SDS011;37835;53.256;6.456;2023-05-16T02:33:58;24.00;;;3.33;;
51764;SDS011;37835;53.256;6.456;2023-05-16T02:36:24;18.15;;;2.70;;
51764;SDS011;37835;53.256;6.456;2023-05-16T02:38:50;24.98;;;2.80;;
51764;SDS011;37835;53.256;6.456;2023-05-16T02:41:16;23.15;;;2.70;;
51764;SDS011;37835;53.256;6.456;2023-05-16T02:43:41;23.30;;;2.78;;
51764;SDS011;37835;53.256;6.456;2023-05-16T02:46:21;14.75;;;2.53;;
51764;SDS011;37835;53.256;6.456;2023-05-16T02:48:51;15.13;;;2.35;;
51764;SDS011;37835;53.256;6.456;2023-05-16T02:51:18;20.05;;;2.92;;
51764;SDS011;37835;53.256;6.456;2023-05-16T02:53:46;18.58;;;2.60;;
51764;SDS011;37835;53.256;6.456;2023-05-16T02:56:11;15.32;;;2.60;;
51764;SDS011;37835;53.256;6.456;2023-05-16T02:58:37;19.70;;;2.35;;
51764;SDS011;37835;53.256;6.456;2023-05-16T03:01:03;18.27;;;2.20;;
51764;SDS011;37835;53.256;6.456;2023-05-16T03:03:28;13.43;;;1.80;;
51764;SDS011;37835;53.256;6.456;2023-05-16T03:05:54;14.68;;;1.85;;
51764;SDS011;37835;53.256;6.456;2023-05-16T03:08:20;17.48;;;2.90;;
51764;SDS011;37835;53.256;6.456;2023-05-16T03:10:45;16.77;;;2.60;;
51764;SDS011;37835;53.256;6.456;2023-05-16T03:13:11;17.67;;;2.38;;
51764;SDS011;37835;53.256;6.456;2023-05-16T03:15:36;13.70;;;2.50;;
51764;SDS011;37835;53.256;6.456;2023-05-16T03:18:02;16.27;;;2.80;;
51764;SDS011;37835;53.256;6.456;2023-05-16T03:20:28;18.30;;;2.70;;
51764;SDS011;37835;53.256;6.456;2023-05-16T03:22:53;18.58;;;2.47;;
51764;SDS011;37835;53.256;6.456;2023-05-16T03:25:19;15.75;;;2.35;;
51764;SDS011;37835;53.256;6.456;2023-05-16T03:27:44;13.93;;;2.38;;
51764;SDS011;37835;53.256;6.456;2023-05-16T03:30:10;15.23;;;2.33;;
51764;SDS011;37835;53.256;6.456;2023-05-16T03:32:37;18.05;;;2.95;;
51764;SDS011;37835;53.256;6.456;2023-05-16T03:35:02;13.55;;;2.00;;
51764;SDS011;37835;53.256;6.456;2023-05-16T03:37:28;13.80;;;2.33;;
51764;SDS011;37835;53.256;6.456;2023-05-16T03:39:54;18.83;;;2.60;;
51764;SDS011;37835;53.256;6.456;2023-05-16T03:42:20;16.92;;;1.90;;
51764;SDS011;37835;53.256;6.456;2023-05-16T03:44:45;14.43;;;2.60;;
51764;SDS011;37835;53.256;6.456;2023-05-16T03:47:11;10.32;;;1.55;;
51764;SDS011;37835;53.256;6.456;2023-05-16T03:49:36;16.27;;;2.20;;
51764;SDS011;37835;53.256;6.456;2023-05-16T03:52:03;17.75;;;2.55;;
51764;SDS011;37835;53.256;6.456;2023-05-16T03:54:29;16.48;;;2.92;;
51764;SDS011;37835;53.256;6.456;2023-05-16T03:56:54;15.57;;;2.63;;
51764;SDS011;37835;53.256;6.456;2023-05-16T03:59:20;15.50;;;2.72;;
51764;SDS011;37835;53.256;6.456;2023-05-16T04:01:46;11.23;;;2.13;;
51764;SDS011;37835;53.256;6.456;2023-05-16T04:04:11;14.48;;;2.00;;
51764;SDS011;37835;53.256;6.456;2023-05-16T04:06:38;14.23;;;2.13;;
51764;SDS011;37835;53.256;6.456;2023-05-16T04:09:03;17.77;;;2.35;;
51764;SDS011;37835;53.256;6.456;2023-05-16T04:11:30;16.05;;;2.05;;
51764;SDS011;37835;53.256;6.456;2023-05-16T04:13:56;15.13;;;1.95;;
51764;SDS011;37835;53.256;6.456;2023-05-16T04:16:22;12.98;;;2.30;;
51764;SDS011;37835;53.256;6.456;2023-05-16T04:18:48;14.05;;;2.28;;
51764;SDS011;37835;53.256;6.456;2023-05-16T04:21:13;12.50;;;2.15;;
51764;SDS011;37835;53.256;6.456;2023-05-16T04:23:40;10.38;;;1.85;;
51764;SDS011;37835;53.256;6.456;2023-05-16T04:26:05;17.90;;;2.22;;
51764;SDS011;37835;53.256;6.456;2023-05-16T04:28:31;12.23;;;1.77;;
51764;SDS011;37835;53.256;6.456;2023-05-16T04:30:57;16.45;;;2.05;;
51764;SDS011;37835;53.256;6.456;2023-05-16T04:33:23;14.35;;;2.15;;
51764;SDS011;37835;53.256;6.456;2023-05-16T04:35:48;20.40;;;2.55;;
51764;SDS011;37835;53.256;6.456;2023-05-16T04:38:14;20.08;;;2.75;;
51764;SDS011;37835;53.256;6.456;2023-05-16T04:40:40;15.23;;;2.50;;
51764;SDS011;37835;53.256;6.456;2023-05-16T04:43:06;14.82;;;1.95;;
51764;SDS011;37835;53.256;6.456;2023-05-16T04:45:32;14.18;;;2.22;;
51764;SDS011;37835;53.256;6.456;2023-05-16T04:47:57;15.00;;;1.90;;
51764;SDS011;37835;53.256;6.456;2023-05-16T04:50:23;16.52;;;2.10;;
51764;SDS011;37835;53.256;6.456;2023-05-16T04:52:48;17.20;;;2.17;;
51764;SDS011;37835;53.256;6.456;2023-05-16T04:55:14;10.02;;;1.45;;
51764;SDS011;37835;53.256;6.456;2023-05-16T04:57:40;13.75;;;1.58;;
51764;SDS011;37835;53.256;6.456;2023-05-16T05:00:06;17.20;;;1.90;;
51764;SDS011;37835;53.256;6.456;2023-05-16T05:02:33;13.10;;;1.60;;
51764;SDS011;37835;53.256;6.456;2023-05-16T05:04:58;12.40;;;1.65;;
51764;SDS011;37835;53.256;6.456;2023-05-16T05:07:24;16.23;;;2.65;;
51764;SDS011;37835;53.256;6.456;2023-05-16T05:09:52;15.13;;;1.88;;
51764;SDS011;37835;53.256;6.456;2023-05-16T05:12:20;20.75;;;2.75;;
51764;SDS011;37835;53.256;6.456;2023-05-16T05:14:46;14.70;;;2.00;;
51764;SDS011;37835;53.256;6.456;2023-05-16T05:17:11;11.77;;;1.80;;
51764;SDS011;37835;53.256;6.456;2023-05-16T05:19:37;18.65;;;1.77;;
51764;SDS011;37835;53.256;6.456;2023-05-16T05:22:02;24.10;;;2.22;;
51764;SDS011;37835;53.256;6.456;2023-05-16T05:24:28;11.45;;;1.83;;
51764;SDS011;37835;53.256;6.456;2023-05-16T05:26:53;14.23;;;1.70;;
51764;SDS011;37835;53.256;6.456;2023-05-16T05:29:19;14.52;;;1.63;;
51764;SDS011;37835;53.256;6.456;2023-05-16T05:31:45;16.88;;;1.92;;
51764;SDS011;37835;53.256;6.456;2023-05-16T05:34:11;6.38;;;1.50;;
51764;SDS011;37835;53.256;6.456;2023-05-16T05:36:36;15.82;;;1.65;;
51764;SDS011;37835;53.256;6.456;2023-05-16T05:39:02;12.13;;;1.92;;
51764;SDS011;37835;53.256;6.456;2023-05-16T05:41:27;16.63;;;1.90;;
51764;SDS011;37835;53.256;6.456;2023-05-16T05:43:53;18.25;;;2.67;;
51764;SDS011;37835;53.256;6.456;2023-05-16T05:46:19;16.92;;;2.00;;
51764;SDS011;37835;53.256;6.456;2023-05-16T05:48:45;18.60;;;2.25;;
51764;SDS011;37835;53.256;6.456;2023-05-16T05:51:10;12.80;;;1.88;;
51764;SDS011;37835;53.256;6.456;2023-05-16T05:53:38;15.77;;;2.08;;
51764;SDS011;37835;53.256;6.456;2023-05-16T05:56:04;17.50;;;2.08;;
51764;SDS011;37835;53.256;6.456;2023-05-16T05:58:30;16.67;;;2.00;;
51764;SDS011;37835;53.256;6.456;2023-05-16T06:00:56;16.92;;;1.58;;
51764;SDS011;37835;53.256;6.456;2023-05-16T06:03:21;9.52;;;1.75;;
51764;SDS011;37835;53.256;6.456;2023-05-16T06:05:47;17.60;;;2.22;;
51764;SDS011;37835;53.256;6.456;2023-05-16T06:08:13;11.00;;;1.67;;
51764;SDS011;37835;53.256;6.456;2023-05-16T06:10:38;13.43;;;2.22;;
51764;SDS011;37835;53.256;6.456;2023-05-16T06:13:04;7.00;;;0.98;;
51764;SDS011;37835;53.256;6.456;2023-05-16T06:15:30;9.20;;;1.08;;
51764;SDS011;37835;53.256;6.456;2023-05-16T06:17:55;11.45;;;1.55;;
51764;SDS011;37835;53.256;6.456;2023-05-16T06:20:22;11.40;;;1.65;;
51764;SDS011;37835;53.256;6.456;2023-05-16T06:22:47;10.00;;;1.45;;
51764;SDS011;37835;53.256;6.456;2023-05-16T06:25:13;12.43;;;1.75;;
51764;SDS011;37835;53.256;6.456;2023-05-16T06:27:40;10.25;;;1.23;;
51764;SDS011;37835;53.256;6.456;2023-05-16T06:30:06;7.45;;;1.50;;
51764;SDS011;37835;53.256;6.456;2023-05-16T06:32:32;12.00;;;1.00;;
51764;SDS011;37835;53.256;6.456;2023-05-16T06:34:58;9.48;;;1.52;;
51764;SDS011;37835;53.256;6.456;2023-05-16T06:37:23;10.30;;;1.80;;
51764;SDS011;37835;53.256;6.456;2023-05-16T06:39:50;10.75;;;1.48;;
51764;SDS011;37835;53.256;6.456;2023-05-16T06:42:16;11.25;;;1.55;;
51764;SDS011;37835;53.256;6.456;2023-05-16T06:44:41;9.70;;;1.40;;
51764;SDS011;37835;53.256;6.456;2023-05-16T06:47:07;7.93;;;1.42;;
51764;SDS011;37835;53.256;6.456;2023-05-16T06:49:33;7.13;;;1.15;;
51764;SDS011;37835;53.256;6.456;2023-05-16T06:51:58;5.57;;;0.65;;
51764;SDS011;37835;53.256;6.456;2023-05-16T06:54:24;7.43;;;1.42;;
51764;SDS011;37835;53.256;6.456;2023-05-16T06:56:49;9.02;;;1.55;;
51764;SDS011;37835;53.256;6.456;2023-05-16T06:59:15;14.57;;;1.55;;
51764;SDS011;37835;53.256;6.456;2023-05-16T07:01:41;12.68;;;1.90;;
51764;SDS011;37835;53.256;6.456;2023-05-16T07:04:06;17.17;;;1.48;;
51764;SDS011;37835;53.256;6.456;2023-05-16T07:06:32;11.18;;;1.67;;
51764;SDS011;37835;53.256;6.456;2023-05-16T07:08:57;17.10;;;2.20;;
51764;SDS011;37835;53.256;6.456;2023-05-16T07:11:23;11.55;;;1.60;;
51764;SDS011;37835;53.256;6.456;2023-05-16T07:13:48;16.35;;;1.95;;
51764;SDS011;37835;53.256;6.456;2023-05-16T07:16:14;11.63;;;1.63;;
51764;SDS011;37835;53.256;6.456;2023-05-16T07:18:40;11.45;;;2.42;;
51764;SDS011;37835;53.256;6.456;2023-05-16T07:21:06;11.50;;;1.92;;
51764;SDS011;37835;53.256;6.456;2023-05-16T07:23:32;12.57;;;2.08;;
51764;SDS011;37835;53.256;6.456;2023-05-16T07:25:57;8.38;;;1.83;;
51764;SDS011;37835;53.256;6.456;2023-05-16T07:28:23;14.27;;;1.77;;
51764;SDS011;37835;53.256;6.456;2023-05-16T07:30:49;11.27;;;1.55;;
51764;SDS011;37835;53.256;6.456;2023-05-16T07:33:14;9.07;;;1.38;;
51764;SDS011;37835;53.256;6.456;2023-05-16T07:35:40;16.88;;;2.40;;
51764;SDS011;37835;53.256;6.456;2023-05-16T07:38:05;16.70;;;1.95;;
51764;SDS011;37835;53.256;6.456;2023-05-16T07:40:31;19.50;;;1.70;;
51764;SDS011;37835;53.256;6.456;2023-05-16T07:42:56;13.20;;;1.92;;
51764;SDS011;37835;53.256;6.456;2023-05-16T07:45:22;16.95;;;2.40;;
51764;SDS011;37835;53.256;6.456;2023-05-16T07:47:48;14.00;;;1.63;;
51764;SDS011;37835;53.256;6.456;2023-05-16T07:50:13;11.45;;;1.63;;
51764;SDS011;37835;53.256;6.456;2023-05-16T07:52:39;10.25;;;1.45;;
51764;SDS011;37835;53.256;6.456;2023-05-16T07:55:05;11.10;;;2.00;;
51764;SDS011;37835;53.256;6.456;2023-05-16T07:57:31;14.43;;;1.83;;
51764;SDS011;37835;53.256;6.456;2023-05-16T07:59:57;11.60;;;1.50;;
51764;SDS011;37835;53.256;6.456;2023-05-16T08:02:22;10.93;;;1.45;;
51764;SDS011;37835;53.256;6.456;2023-05-16T08:04:50;10.90;;;1.35;;
51764;SDS011;37835;53.256;6.456;2023-05-16T08:07:15;8.23;;;1.65;;
51764;SDS011;37835;53.256;6.456;2023-05-16T08:09:41;4.13;;;0.73;;
51764;SDS011;37835;53.256;6.456;2023-05-16T08:12:07;6.95;;;1.00;;
51764;SDS011;37835;53.256;6.456;2023-05-16T08:14:33;6.60;;;1.23;;
51764;SDS011;37835;53.256;6.456;2023-05-16T08:16:58;7.18;;;0.90;;
51764;SDS011;37835;53.256;6.456;2023-05-16T08:19:24;8.35;;;1.20;;
51764;SDS011;37835;53.256;6.456;2023-05-16T08:21:50;12.73;;;1.30;;
51764;SDS011;37835;53.256;6.456;2023-05-16T08:24:15;12.02;;;1.45;;
51764;SDS011;37835;53.256;6.456;2023-05-16T08:26:41;12.60;;;2.35;;
51764;SDS011;37835;53.256;6.456;2023-05-16T08:29:07;14.20;;;2.28;;
51764;SDS011;37835;53.256;6.456;2023-05-16T08:31:32;10.95;;;1.73;;
51764;SDS011;37835;53.256;6.456;2023-05-16T08:33:58;10.85;;;1.98;;
51764;SDS011;37835;53.256;6.456;2023-05-16T08:36:25;13.82;;;2.20;;
51764;SDS011;37835;53.256;6.456;2023-05-16T08:38:51;18.23;;;3.00;;
51764;SDS011;37835;53.256;6.456;2023-05-16T08:41:17;12.70;;;1.80;;
51764;SDS011;37835;53.256;6.456;2023-05-16T08:43:42;10.57;;;1.60;;
51764;SDS011;37835;53.256;6.456;2023-05-16T08:46:08;10.32;;;1.80;;
51764;SDS011;37835;53.256;6.456;2023-05-16T08:48:35;15.90;;;2.25;;
51764;SDS011;37835;53.256;6.456;2023-05-16T08:51:01;13.68;;;1.48;;
51764;SDS011;37835;53.256;6.456;2023-05-16T08:53:30;12.10;;;2.17;;
51764;SDS011;37835;53.256;6.456;2023-05-16T08:56:01;11.20;;;1.85;;
51764;SDS011;37835;53.256;6.456;2023-05-16T08:58:28;9.48;;;1.73;;
51764;SDS011;37835;53.256;6.456;2023-05-16T09:00:54;12.05;;;1.77;;
51764;SDS011;37835;53.256;6.456;2023-05-16T09:03:20;12.65;;;1.80;;
51764;SDS011;37835;53.256;6.456;2023-05-16T09:05:48;11.05;;;1.90;;
51764;SDS011;37835;53.256;6.456;2023-05-16T09:08:14;11.43;;;1.60;;
51764;SDS011;37835;53.256;6.456;2023-05-16T09:10:40;9.77;;;1.50;;
51764;SDS011;37835;53.256;6.456;2023-05-16T09:13:05;16.35;;;2.83;;
51764;SDS011;37835;53.256;6.456;2023-05-16T09:15:31;16.30;;;1.92;;
51764;SDS011;37835;53.256;6.456;2023-05-16T09:18:01;18.02;;;1.90;;
51764;SDS011;37835;53.256;6.456;2023-05-16T09:20:27;11.88;;;2.55;;
51764;SDS011;37835;53.256;6.456;2023-05-16T09:22:53;10.05;;;1.58;;
51764;SDS011;37835;53.256;6.456;2023-05-16T09:25:23;8.98;;;1.35;;
51764;SDS011;37835;53.256;6.456;2023-05-16T09:27:53;17.40;;;1.52;;
51764;SDS011;37835;53.256;6.456;2023-05-16T09:30:20;11.75;;;1.60;;
51764;SDS011;37835;53.256;6.456;2023-05-16T09:32:52;13.63;;;1.80;;
51764;SDS011;37835;53.256;6.456;2023-05-16T09:35:19;10.93;;;1.52;;
51764;SDS011;37835;53.256;6.456;2023-05-16T09:37:45;18.95;;;2.47;;
51764;SDS011;37835;53.256;6.456;2023-05-16T09:40:12;12.95;;;1.50;;
51764;SDS011;37835;53.256;6.456;2023-05-16T09:42:39;12.45;;;1.88;;
51764;SDS011;37835;53.256;6.456;2023-05-16T09:45:04;12.57;;;1.83;;
51764;SDS011;37835;53.256;6.456;2023-05-16T09:47:30;8.50;;;1.48;;
51764;SDS011;37835;53.256;6.456;2023-05-16T09:49:56;14.45;;;1.90;;
51764;SDS011;37835;53.256;6.456;2023-05-16T09:52:25;8.55;;;1.75;;
51764;SDS011;37835;53.256;6.456;2023-05-16T09:54:51;12.70;;;1.67;;
51764;SDS011;37835;53.256;6.456;2023-05-16T09:57:19;11.95;;;1.80;;
51764;SDS011;37835;53.256;6.456;2023-05-16T09:59:45;13.55;;;1.60;;
51764;SDS011;37835;53.256;6.456;2023-05-16T10:02:12;16.38;;;1.88;;
51764;SDS011;37835;53.256;6.456;2023-05-16T10:04:38;18.10;;;2.10;;
51764;SDS011;37835;53.256;6.456;2023-05-16T10:07:04;11.27;;;1.40;;
51764;SDS011;37835;53.256;6.456;2023-05-16T10:09:31;10.98;;;1.60;;
51764;SDS011;37835;53.256;6.456;2023-05-16T10:11:58;8.57;;;1.30;;
51764;SDS011;37835;53.256;6.456;2023-05-16T10:14:29;13.02;;;1.73;;
51764;SDS011;37835;53.256;6.456;2023-05-16T10:16:59;10.55;;;1.67;;
51764;SDS011;37835;53.256;6.456;2023-05-16T10:19:27;13.07;;;2.00;;
51764;SDS011;37835;53.256;6.456;2023-05-16T10:21:56;12.50;;;2.00;;
51764;SDS011;37835;53.256;6.456;2023-05-16T10:24:47;7.25;;;1.25;;
51764;SDS011;37835;53.256;6.456;2023-05-16T10:27:10;8.43;;;1.50;;
51764;SDS011;37835;53.256;6.456;2023-05-16T10:29:36;8.02;;;1.40;;
51764;SDS011;37835;53.256;6.456;2023-05-16T10:32:03;11.30;;;1.65;;
51764;SDS011;37835;53.256;6.456;2023-05-16T10:34:30;6.60;;;1.38;;
51764;SDS011;37835;53.256;6.456;2023-05-16T10:36:56;12.23;;;1.40;;
51764;SDS011;37835;53.256;6.456;2023-05-16T10:39:22;10.60;;;2.63;;
51764;SDS011;37835;53.256;6.456;2023-05-16T10:41:48;11.35;;;1.63;;
51764;SDS011;37835;53.256;6.456;2023-05-16T10:44:14;12.18;;;1.33;;
51764;SDS011;37835;53.256;6.456;2023-05-16T10:46:41;8.63;;;2.05;;
51764;SDS011;37835;53.256;6.456;2023-05-16T10:49:23;8.90;;;1.25;;
51764;SDS011;37835;53.256;6.456;2023-05-16T10:52:09;10.63;;;1.80;;
51764;SDS011;37835;53.256;6.456;2023-05-16T10:54:43;13.50;;;1.90;;
51764;SDS011;37835;53.256;6.456;2023-05-16T10:57:15;11.45;;;1.75;;
51764;SDS011;37835;53.256;6.456;2023-05-16T10:59:47;12.38;;;1.40;;
51764;SDS011;37835;53.256;6.456;2023-05-16T11:07:19;10.02;;;1.42;;
51764;SDS011;37835;53.256;6.456;2023-05-16T11:09:52;13.57;;;1.80;;
51764;SDS011;37835;53.256;6.456;2023-05-16T11:12:35;12.55;;;1.30;;
51764;SDS011;37835;53.256;6.456;2023-05-16T11:15:25;11.13;;;1.35;;
51764;SDS011;37835;53.256;6.456;2023-05-16T11:20:35;6.55;;;1.38;;
51764;SDS011;37835;53.256;6.456;2023-05-16T11:25:56;10.75;;;1.95;;
51764;SDS011;37835;53.256;6.456;2023-05-16T11:28:24;14.55;;;2.20;;
51764;SDS011;37835;53.256;6.456;2023-05-16T11:30:54;16.27;;;1.95;;
51764;SDS011;37835;53.256;6.456;2023-05-16T11:33:23;8.00;;;1.48;;
51764;SDS011;37835;53.256;6.456;2023-05-16T11:35:59;11.02;;;2.00;;
51764;SDS011;37835;53.256;6.456;2023-05-16T11:38:31;13.18;;;2.42;;
51764;SDS011;37835;53.256;6.456;2023-05-16T11:41:01;11.02;;;1.52;;
51764;SDS011;37835;53.256;6.456;2023-05-16T11:43:41;14.70;;;2.85;;
51764;SDS011;37835;53.256;6.456;2023-05-16T11:46:12;10.48;;;2.10;;
51764;SDS011;37835;53.256;6.456;2023-05-16T11:48:39;15.90;;;1.98;;
51764;SDS011;37835;53.256;6.456;2023-05-16T11:51:05;12.13;;;2.22;;
51764;SDS011;37835;53.256;6.456;2023-05-16T11:53:31;12.88;;;2.03;;
51764;SDS011;37835;53.256;6.456;2023-05-16T11:55:58;12.30;;;2.88;;
51764;SDS011;37835;53.256;6.456;2023-05-16T11:58:25;9.02;;;2.05;;
51764;SDS011;37835;53.256;6.456;2023-05-16T12:00:51;10.63;;;2.03;;
51764;SDS011;37835;53.256;6.456;2023-05-16T12:03:17;10.73;;;2.40;;
51764;SDS011;37835;53.256;6.456;2023-05-16T12:05:54;11.43;;;2.33;;
51764;SDS011;37835;53.256;6.456;2023-05-16T12:08:22;9.02;;;1.98;;
51764;SDS011;37835;53.256;6.456;2023-05-16T12:10:49;13.07;;;2.10;;
51764;SDS011;37835;53.256;6.456;2023-05-16T12:13:16;11.15;;;2.58;;
51764;SDS011;37835;53.256;6.456;2023-05-16T12:15:46;13.30;;;2.50;;
51764;SDS011;37835;53.256;6.456;2023-05-16T12:18:13;12.93;;;2.33;;
51764;SDS011;37835;53.256;6.456;2023-05-16T12:20:40;8.85;;;2.35;;
51764;SDS011;37835;53.256;6.456;2023-05-16T12:23:13;10.82;;;3.00;;
51764;SDS011;37835;53.256;6.456;2023-05-16T12:25:39;12.90;;;2.40;;
51764;SDS011;37835;53.256;6.456;2023-05-16T12:28:11;12.82;;;2.58;;
51764;SDS011;37835;53.256;6.456;2023-05-16T12:30:39;9.05;;;3.17;;
51764;SDS011;37835;53.256;6.456;2023-05-16T12:33:13;10.07;;;2.53;;
51764;SDS011;37835;53.256;6.456;2023-05-16T12:35:42;11.93;;;3.38;;
51764;SDS011;37835;53.256;6.456;2023-05-16T12:38:10;10.43;;;3.00;;
51764;SDS011;37835;53.256;6.456;2023-05-16T12:40:38;13.25;;;2.92;;
51764;SDS011;37835;53.256;6.456;2023-05-16T12:43:11;7.63;;;2.88;;
51764;SDS011;37835;53.256;6.456;2023-05-16T12:45:54;7.85;;;2.88;;
51764;SDS011;37835;53.256;6.456;2023-05-16T12:48:21;8.15;;;3.20;;
51764;SDS011;37835;53.256;6.456;2023-05-16T12:50:48;8.15;;;3.50;;
51764;SDS011;37835;53.256;6.456;2023-05-16T12:53:14;9.60;;;2.97;;
51764;SDS011;37835;53.256;6.456;2023-05-16T12:55:41;10.57;;;3.15;;
51764;SDS011;37835;53.256;6.456;2023-05-16T12:58:09;13.88;;;3.35;;
51764;SDS011;37835;53.256;6.456;2023-05-16T13:00:35;9.15;;;2.38;;
51764;SDS011;37835;53.256;6.456;2023-05-16T13:03:02;10.63;;;3.13;;
51764;SDS011;37835;53.256;6.456;2023-05-16T13:05:28;10.40;;;2.70;;
51764;SDS011;37835;53.256;6.456;2023-05-16T13:07:53;10.32;;;2.42;;
51764;SDS011;37835;53.256;6.456;2023-05-16T13:10:19;11.88;;;2.78;;
51764;SDS011;37835;53.256;6.456;2023-05-16T13:12:45;7.20;;;3.30;;
51764;SDS011;37835;53.256;6.456;2023-05-16T13:15:11;11.50;;;2.40;;
51764;SDS011;37835;53.256;6.456;2023-05-16T13:17:37;10.80;;;3.10;;
51764;SDS011;37835;53.256;6.456;2023-05-16T13:20:04;12.32;;;2.83;;
51764;SDS011;37835;53.256;6.456;2023-05-16T13:22:37;8.98;;;2.35;;
51764;SDS011;37835;53.256;6.456;2023-05-16T13:25:03;6.65;;;2.47;;
51764;SDS011;37835;53.256;6.456;2023-05-16T13:27:30;5.30;;;2.17;;
51764;SDS011;37835;53.256;6.456;2023-05-16T13:29:56;7.78;;;3.03;;
51764;SDS011;37835;53.256;6.456;2023-05-16T13:32:22;6.68;;;2.70;;
51764;SDS011;37835;53.256;6.456;2023-05-16T13:34:48;6.15;;;2.40;;
51764;SDS011;37835;53.256;6.456;2023-05-16T13:37:14;4.78;;;2.47;;
51764;SDS011;37835;53.256;6.456;2023-05-16T13:39:40;8.15;;;2.72;;
51764;SDS011;37835;53.256;6.456;2023-05-16T13:42:05;8.30;;;2.72;;
51764;SDS011;37835;53.256;6.456;2023-05-16T13:44:31;7.22;;;2.65;;
51764;SDS011;37835;53.256;6.456;2023-05-16T13:46:57;8.88;;;2.65;;
51764;SDS011;37835;53.256;6.456;2023-05-16T13:49:23;9.85;;;3.13;;
51764;SDS011;37835;53.256;6.456;2023-05-16T13:51:48;6.95;;;2.95;;
51764;SDS011;37835;53.256;6.456;2023-05-16T13:54:15;7.13;;;2.90;;
51764;SDS011;37835;53.256;6.456;2023-05-16T13:56:42;8.00;;;2.72;;
51764;SDS011;37835;53.256;6.456;2023-05-16T13:59:08;7.00;;;2.78;;
51764;SDS011;37835;53.256;6.456;2023-05-16T14:01:33;8.77;;;2.90;;
51764;SDS011;37835;53.256;6.456;2023-05-16T14:04:00;7.30;;;2.30;;
51764;SDS011;37835;53.256;6.456;2023-05-16T14:06:26;19.52;;;5.60;;
51764;SDS011;37835;53.256;6.456;2023-05-16T14:08:52;9.60;;;2.72;;
51764;SDS011;37835;53.256;6.456;2023-05-16T14:11:18;9.32;;;2.45;;
51764;SDS011;37835;53.256;6.456;2023-05-16T14:13:44;10.60;;;2.50;;
51764;SDS011;37835;53.256;6.456;2023-05-16T14:16:10;8.98;;;2.33;;
51764;SDS011;37835;53.256;6.456;2023-05-16T14:18:35;9.38;;;2.70;;
51764;SDS011;37835;53.256;6.456;2023-05-16T14:21:01;7.70;;;2.67;;
51764;SDS011;37835;53.256;6.456;2023-05-16T14:23:27;8.85;;;2.40;;
51764;SDS011;37835;53.256;6.456;2023-05-16T14:25:52;12.95;;;2.83;;
51764;SDS011;37835;53.256;6.456;2023-05-16T14:28:18;12.45;;;3.10;;
51764;SDS011;37835;53.256;6.456;2023-05-16T14:30:43;9.90;;;2.25;;
51764;SDS011;37835;53.256;6.456;2023-05-16T14:33:09;11.70;;;3.05;;
51764;SDS011;37835;53.256;6.456;2023-05-16T14:35:35;7.82;;;2.33;;
51764;SDS011;37835;53.256;6.456;2023-05-16T14:38:02;7.35;;;2.70;;
51764;SDS011;37835;53.256;6.456;2023-05-16T14:40:28;8.05;;;2.55;;
51764;SDS011;37835;53.256;6.456;2023-05-16T14:42:54;8.65;;;1.95;;
51764;SDS011;37835;53.256;6.456;2023-05-16T14:45:19;8.82;;;2.95;;
51764;SDS011;37835;53.256;6.456;2023-05-16T14:47:45;7.53;;;1.67;;
51764;SDS011;37835;53.256;6.456;2023-05-16T14:50:12;6.00;;;1.60;;
51764;SDS011;37835;53.256;6.456;2023-05-16T14:52:38;6.90;;;1.40;;
51764;SDS011;37835;53.256;6.456;2023-05-16T14:55:04;8.23;;;1.38;;
51764;SDS011;37835;53.256;6.456;2023-05-16T14:57:30;9.07;;;1.33;;